Ashton, Missouri
Current Conditions -  °F | °C
As of 4:55 AM on Monday 20 Oct 2014 (Local Time) from KEOK Reporting Station
Clear Clear  
Wind Chill: 10°   Ceiling: Unl
Heat Index: 10°   Visibility: 10mi
Dew Point:   Wind: 5mph
Humidity: 94%   Direction: 250°WSW
Pressure: 29.9"   Gusts: NA
Location:  40.513°N, 91.8882°W
Report Text: KEOK 200955Z AUTO 25004KT 10SM CLR 10/09 A2990 RMK AO2
Loading
Personal Weather Stations






























Interactive Weather Map
Tropical Storm Tracking
New forecast layout! Learn more

10-Day Weather Forecast

Advertisements
Track Severe Weather on mobile